Time;durP1;ratioP1;P1;durP2;ratioP2;P2;SDS_P1;SDS_P2;PMS_P1;PMS_P2;Temp;Humidity;BMP_temperature;BMP_pressure;BME280_temperature;BME280_humidity;BME280_pressure;Samples;Min_cycle;Max_cycle;Signal;HPM_P1;HPM_P2
2023/03/09 00:00:10;;;;;;;3.13;0.77;;;2.00;99.90;;;;;;5138357;27;20066;-91
2023/03/09 00:02:36;;;;;;;1.27;0.52;;;1.50;99.90;;;;;;5154214;27;20051;-91
2023/03/09 00:05:09;;;;;;;2.45;0.30;;;1.40;99.90;;;;;;5119754;27;20497;-91
2023/03/09 00:07:38;;;;;;;0.70;0.47;;;1.50;99.90;;;;;;5102755;27;20047;-94
2023/03/09 00:10:09;;;;;;;0.80;0.80;;;1.50;99.90;;;;;;5102846;27;20480;-91
2023/03/09 00:12:37;;;;;;;1.55;0.40;;;1.50;99.90;;;;;;5102301;27;20180;-94
2023/03/09 00:15:06;;;;;;;1.25;0.43;;;2.20;99.90;;;;;;5152829;27;20039;-91
2023/03/09 00:17:33;;;;;;;2.38;0.82;;;1.30;99.90;;;;;;5119487;27;20039;-91
2023/03/09 00:20:17;;;;;;;0.90;0.45;;;1.30;99.90;;;;;;5154208;27;20070;-91
2023/03/09 00:22:51;;;;;;;1.75;1.02;;;2.70;99.90;;;;;;5136240;27;20138;-91
2023/03/09 00:25:21;;;;;;;2.25;0.35;;;1.40;99.90;;;;;;5118269;27;20047;-91
2023/03/09 00:27:57;;;;;;;1.42;1.25;;;1.30;99.90;;;;;;5135793;27;20051;-91
2023/03/09 00:30:25;;;;;;;1.43;0.67;;;2.20;99.90;;;;;;5087910;28;20055;-91
2023/03/09 00:32:57;;;;;;;1.75;1.10;;;1.20;99.90;;;;;;5098919;28;20131;-91
2023/03/09 00:35:40;;;;;;;0.57;0.57;;;1.40;99.90;;;;;;5083063;28;20039;-91
2023/03/09 00:38:13;;;;;;;2.70;0.88;;;1.60;99.90;;;;;;5082177;28;20039;-91
2023/03/09 00:40:39;;;;;;;0.40;0.40;;;1.20;99.90;;;;;;5098995;28;20055;-93
2023/03/09 00:43:08;;;;;;;2.13;0.90;;;1.40;99.90;;;;;;5084679;28;20059;-91
2023/03/09 00:45:37;;;;;;;2.10;0.47;;;2.70;99.90;;;;;;5081763;28;20379;-91
2023/03/09 00:48:06;;;;;;;0.30;0.30;;;2.70;99.90;;;;;;5082342;28;20108;-91
2023/03/09 00:50:34;;;;;;;1.57;0.37;;;1.30;99.90;;;;;;5081206;28;20474;-91
2023/03/09 00:53:07;;;;;;;2.67;0.50;;;1.20;99.90;;;;;;5081582;28;20499;-91
2023/03/09 00:55:38;;;;;;;2.35;0.65;;;0.40;99.90;;;;;;5099092;28;20512;-91
2023/03/09 00:58:12;;;;;;;0.98;0.60;;;1.30;99.90;;;;;;5081425;28;20047;-91
2023/03/09 01:00:48;;;;;;;1.30;1.20;;;1.10;99.90;;;;;;5081597;28;20109;-91
2023/03/09 01:03:14;;;;;;;0.75;0.60;;;2.30;99.90;;;;;;5082269;28;20077;-91
2023/03/09 01:05:39;;;;;;;2.90;0.77;;;2.00;99.90;;;;;;5099569;28;20406;-91
2023/03/09 01:08:10;;;;;;;1.10;0.90;;;1.40;99.90;;;;;;5082621;28;20036;-91
2023/03/09 01:10:42;;;;;;;2.47;0.30;;;1.20;99.90;;;;;;5081413;28;20044;-90
2023/03/09 01:13:11;;;;;;;0.47;0.47;;;2.50;99.90;;;;;;5080955;28;20047;-91
2023/03/09 01:15:37;;;;;;;2.08;1.00;;;2.30;99.90;;;;;;5098244;28;20047;-91
2023/03/09 01:18:03;;;;;;;1.63;0.63;;;2.50;99.90;;;;;;5097543;28;20044;-91
2023/03/09 01:20:39;;;;;;;0.40;0.40;;;1.00;99.90;;;;;;5080933;28;20127;-91
2023/03/09 01:23:05;;;;;;;1.23;0.90;;;2.50;99.90;;;;;;5080725;28;20048;-91
2023/03/09 01:25:33;;;;;;;0.25;0.20;;;2.40;99.90;;;;;;5081368;28;20070;-90
2023/03/09 01:28:09;;;;;;;;;;;;;;;;;;;;;
2023/03/09 01:30:35;;;;;;;0.45;0.45;;;2.10;99.90;;;;;;5098828;28;20135;-91
2023/03/09 01:33:01;;;;;;;0.20;0.20;;;1.10;99.90;;;;;;5098392;28;20087;-91
2023/03/09 01:35:37;;;;;;;0.13;0.13;;;1.00;99.90;;;;;;5132640;27;20039;-91
2023/03/09 01:38:03;;;;;;;4.55;1.42;;;1.10;99.90;;;;;;5097597;28;20067;-91
2023/03/09 01:40:31;;;;;;;1.40;0.80;;;1.70;99.90;;;;;;5113269;28;20042;-91
2023/03/09 01:43:20;;;;;;;1.30;1.08;;;1.00;99.90;;;;;;5132199;27;20083;-92
2023/03/09 01:45:49;;;;;;;0.65;0.45;;;2.00;99.90;;;;;;5098383;28;20051;-91
2023/03/09 01:48:35;;;;;;;0.38;0.32;;;1.40;99.90;;;;;;5081946;28;20081;-91
2023/03/09 01:51:08;;;;;;;0.55;0.55;;;2.00;99.90;;;;;;5081619;28;20054;-91
2023/03/09 01:53:37;;;;;;;1.00;0.50;;;2.50;99.90;;;;;;5081736;28;20114;-91
2023/03/09 01:56:03;;;;;;;1.58;0.73;;;0.90;99.90;;;;;;5081484;28;20044;-91
2023/03/09 01:58:34;;;;;;;1.23;1.02;;;0.90;99.90;;;;;;5096133;28;20043;-90
2023/03/09 02:01:00;;;;;;;0.93;0.70;;;0.70;99.90;;;;;;5114468;28;20047;-91
2023/03/09 02:03:35;;;;;;;0.90;0.87;;;2.30;99.90;;;;;;5080667;28;20048;-90
2023/03/09 02:06:16;;;;;;;1.92;0.90;;;0.90;99.90;;;;;;5081804;28;20055;-90
2023/03/09 02:08:50;;;;;;;0.68;0.55;;;1.80;99.90;;;;;;5114678;28;20039;-90
2023/03/09 02:11:19;;;;;;;1.13;0.65;;;1.00;99.90;;;;;;5115200;28;20047;-90
2023/03/09 02:14:00;;;;;;;1.08;0.65;;;0.70;99.90;;;;;;5115595;28;20107;-90
2023/03/09 02:16:29;;;;;;;0.20;0.13;;;1.00;99.90;;;;;;5082502;28;20051;-91
2023/03/09 02:18:57;;;;;;;1.85;1.10;;;0.90;99.90;;;;;;5115084;28;20101;-91
2023/03/09 02:21:53;;;;;;;0.90;0.35;;;1.60;99.90;;;;;;5079810;28;20101;-90
2023/03/09 02:24:31;;;;;;;0.65;0.55;;;0.90;99.90;;;;;;5114608;28;20138;-90
2023/03/09 02:27:00;;;;;;;0.60;0.20;;;0.80;99.90;;;;;;5079926;28;20051;-91
2023/03/09 02:29:27;;;;;;;0.30;0.28;;;1.10;99.90;;;;;;5080530;28;20409;-91
2023/03/09 02:31:53;;;;;;;1.27;0.75;;;0.80;99.90;;;;;;5097308;28;20043;-90
2023/03/09 02:34:21;;;;;;;1.15;0.40;;;0.80;99.90;;;;;;5114727;28;20500;-90
2023/03/09 02:36:47;;;;;;;1.33;0.30;;;0.80;99.90;;;;;;5078410;28;20044;-90
2023/03/09 02:39:20;;;;;;;0.57;0.57;;;2.10;99.90;;;;;;5113787;28;20087;-91
2023/03/09 02:41:46;;;;;;;0.60;0.35;;;0.70;99.90;;;;;;5098424;28;20112;-91
2023/03/09 02:44:13;;;;;;;6.40;0.50;;;1.90;99.90;;;;;;5136433;27;20044;-91
2023/03/09 02:46:42;;;;;;;1.88;0.40;;;0.20;99.90;;;;;;5136086;27;20047;-91
2023/03/09 02:49:07;;;;;;;1.23;0.57;;;0.70;99.90;;;;;;5082968;28;20057;-90
2023/03/09 02:51:33;;;;;;;1.13;0.60;;;0.80;99.90;;;;;;5116739;28;20043;-91
2023/03/09 02:53:59;;;;;;;0.40;0.20;;;0.00;99.90;;;;;;5101218;28;20040;-95
2023/03/09 02:56:30;;;;;;;0.60;0.30;;;2.00;99.90;;;;;;5102245;28;20051;-91
2023/03/09 02:58:56;;;;;;;0.77;0.77;;;0.70;99.90;;;;;;5117390;28;20047;-91
2023/03/09 03:01:31;;;;;;;1.73;0.60;;;1.30;99.90;;;;;;5083468;28;20047;-90
2023/03/09 03:04:06;;;;;;;0.93;0.22;;;0.00;99.90;;;;;;5100992;28;20040;-90
2023/03/09 03:06:39;;;;;;;3.92;1.00;;;2.10;99.90;;;;;;5136090;27;20147;-91
2023/03/09 03:09:05;;;;;;;0.30;0.22;;;0.70;99.90;;;;;;5101414;28;20047;-91
2023/03/09 03:11:33;;;;;;;0.23;0.23;;;0.70;99.90;;;;;;5100454;28;20459;-90
2023/03/09 03:14:02;;;;;;;1.20;0.35;;;1.90;99.90;;;;;;5083239;28;20371;-92
2023/03/09 03:16:31;;;;;;;0.28;0.28;;;0.80;99.90;;;;;;5101971;28;20413;-90
2023/03/09 03:19:00;;;;;;;0.57;0.50;;;2.10;99.90;;;;;;5118998;28;20079;-91
2023/03/09 03:21:26;;;;;;;1.85;0.52;;;2.10;99.90;;;;;;5083211;28;20047;-91
2023/03/09 03:23:54;;;;;;;0.50;0.20;;;0.90;99.90;;;;;;5100226;28;20093;-90
2023/03/09 03:26:23;;;;;;;1.45;0.82;;;0.70;99.90;;;;;;5100760;28;20564;-90
2023/03/09 03:28:48;;;;;;;0.22;0.10;;;0.70;99.90;;;;;;5116261;28;20036;-91
2023/03/09 03:31:14;;;;;;;0.50;0.50;;;0.70;99.90;;;;;;5100373;28;20060;-91
2023/03/09 03:33:40;;;;;;;0.65;0.65;;;0.60;99.90;;;;;;5100359;28;20108;-91
2023/03/09 03:36:09;;;;;;;0.47;0.43;;;0.70;99.90;;;;;;5082568;28;20105;-92
2023/03/09 03:38:52;;;;;;;2.38;1.08;;;0.60;99.90;;;;;;5100493;28;20047;-90
2023/03/09 03:41:18;;;;;;;0.57;0.57;;;0.70;99.90;;;;;;5084010;28;20047;-90
2023/03/09 03:43:44;;;;;;;0.83;0.70;;;0.60;99.90;;;;;;5081706;28;20050;-90
2023/03/09 03:46:10;;;;;;;2.60;0.47;;;0.70;99.90;;;;;;5081961;28;20130;-91
2023/03/09 03:48:37;;;;;;;1.03;0.20;;;0.70;99.90;;;;;;5083423;28;20051;-90
2023/03/09 03:51:03;;;;;;;;;;;0.60;99.90;;;;;;5082370;28;20143;-92
2023/03/09 03:53:29;;;;;;;0.30;0.30;;;0.70;99.90;;;;;;5081599;28;20281;-91
2023/03/09 03:55:57;;;;;;;0.77;0.50;;;0.70;99.90;;;;;;5098927;28;20036;-91
2023/03/09 03:58:26;;;;;;;2.70;0.50;;;1.80;99.90;;;;;;5082325;28;20481;-90
2023/03/09 04:00:55;;;;;;;0.20;0.20;;;1.80;99.90;;;;;;5084179;28;20074;-90
2023/03/09 04:03:28;;;;;;;1.27;0.53;;;0.70;99.90;;;;;;5100257;28;20043;-90
2023/03/09 04:05:53;;;;;;;2.97;1.15;;;1.20;99.90;;;;;;5082392;28;20091;-90
2023/03/09 04:08:19;;;;;;;1.47;0.90;;;2.10;99.90;;;;;;5081107;28;20488;-91
2023/03/09 04:10:48;;;;;;;0.73;0.30;;;0.60;99.90;;;;;;5082753;28;20544;-91
2023/03/09 04:13:14;;;;;;;3.63;1.20;;;0.60;99.90;;;;;;5081901;28;20086;-90
2023/03/09 04:15:40;;;;;;;1.30;0.80;;;1.80;99.90;;;;;;5099198;28;20087;-91
2023/03/09 04:18:07;;;;;;;2.30;2.03;;;0.60;99.90;;;;;;5082557;28;20050;-91
2023/03/09 04:20:33;;;;;;;0.85;0.52;;;1.90;99.90;;;;;;5082790;28;20070;-91
2023/03/09 04:23:00;;;;;;;1.27;0.45;;;0.60;99.90;;;;;;5083220;28;20040;-91
2023/03/09 04:25:26;;;;;;;1.60;1.48;;;1.70;99.90;;;;;;5081861;28;20062;-91
2023/03/09 04:27:54;;;;;;;1.88;0.57;;;0.20;99.90;;;;;;5081116;28;20051;-91
2023/03/09 04:30:22;;;;;;;3.85;1.45;;;-0.30;99.90;;;;;;5098961;28;20099;-90
2023/03/09 04:32:53;;;;;;;1.10;0.68;;;0.60;99.90;;;;;;5116723;28;20138;-91
2023/03/09 04:35:23;;;;;;;3.88;1.23;;;0.60;99.90;;;;;;5115191;28;20078;-91
2023/03/09 04:37:51;;;;;;;0.93;0.52;;;2.10;99.90;;;;;;5081327;28;20506;-90
2023/03/09 04:40:19;;;;;;;0.47;0.38;;;0.60;99.90;;;;;;5133586;27;20509;-91
2023/03/09 04:42:54;;;;;;;0.95;0.55;;;0.60;99.90;;;;;;5099910;28;20044;-90
2023/03/09 04:45:22;;;;;;;1.88;1.17;;;1.50;99.90;;;;;;5082788;28;20398;-90
2023/03/09 04:47:48;;;;;;;0.93;0.47;;;2.00;99.90;;;;;;5098561;28;20550;-90
2023/03/09 04:50:14;;;;;;;0.87;0.50;;;2.00;99.90;;;;;;5080704;28;20043;-94
2023/03/09 04:52:49;;;;;;;2.30;0.93;;;2.00;99.90;;;;;;5116988;28;20083;-90
2023/03/09 04:55:15;;;;;;;0.85;0.40;;;0.60;99.90;;;;;;5132388;27;20044;-93
2023/03/09 04:57:41;;;;;;;2.10;1.05;;;0.60;99.90;;;;;;5116418;28;20078;-92
2023/03/09 05:00:11;;;;;;;1.63;0.43;;;0.30;99.90;;;;;;5080827;28;20079;-90
2023/03/09 05:02:38;;;;;;;1.38;0.40;;;0.60;99.90;;;;;;5082986;28;20049;-90
2023/03/09 05:05:04;;;;;;;;;;;0.70;99.90;;;;;;5081856;28;20087;-90
2023/03/09 05:07:30;;;;;;;1.35;0.75;;;0.60;99.90;;;;;;5080937;28;19970;-91
2023/03/09 05:09:56;;;;;;;0.43;0.40;;;0.60;99.90;;;;;;5097916;28;20510;-91
2023/03/09 05:12:22;;;;;;;1.23;0.73;;;0.60;99.90;;;;;;5114693;28;20389;-91
2023/03/09 05:14:48;;;;;;;0.40;0.40;;;0.60;99.90;;;;;;5115017;28;20047;-91
2023/03/09 05:17:13;;;;;;;5.07;0.40;;;0.70;99.90;;;;;;5098670;28;20058;-90
2023/03/09 05:19:42;;;;;;;2.50;0.50;;;-0.20;99.90;;;;;;5130669;27;20044;-90
2023/03/09 05:22:08;;;;;;;1.13;0.30;;;0.50;99.90;;;;;;5114572;28;20508;-90
2023/03/09 05:24:33;;;;;;;0.83;0.83;;;1.40;99.90;;;;;;5132489;27;20035;-90
2023/03/09 05:26:59;;;;;;;1.07;0.53;;;1.90;99.90;;;;;;5098580;28;20043;-91
2023/03/09 05:29:25;;;;;;;2.30;0.73;;;1.30;99.90;;;;;;5081281;27;20457;-91
2023/03/09 05:31:51;;;;;;;3.57;0.77;;;1.70;99.90;;;;;;5098040;28;20497;-90
2023/03/09 05:34:17;;;;;;;4.53;1.03;;;1.20;99.90;;;;;;5096868;28;20054;-91
2023/03/09 05:36:45;;;;;;;0.23;0.23;;;1.50;99.90;;;;;;5079382;28;20047;-91
2023/03/09 05:39:11;;;;;;;2.40;0.57;;;1.80;99.90;;;;;;5079341;28;20047;-91
2023/03/09 05:41:40;;;;;;;1.93;1.33;;;0.60;99.90;;;;;;5082951;28;20047;-90
2023/03/09 05:44:10;;;;;;;1.70;0.65;;;0.50;99.90;;;;;;5082031;28;20066;-90
2023/03/09 05:46:39;;;;;;;1.55;0.30;;;0.40;99.90;;;;;;5081045;28;20051;-91
2023/03/09 05:49:13;;;;;;;2.67;0.93;;;1.50;99.90;;;;;;5082368;28;20043;-90
2023/03/09 05:51:38;;;;;;;0.77;0.75;;;0.40;99.90;;;;;;5098759;28;20040;-90
2023/03/09 05:54:12;;;;;;;2.10;0.43;;;0.40;99.90;;;;;;5099055;28;20050;-91
2023/03/09 05:56:38;;;;;;;2.63;0.52;;;1.40;99.90;;;;;;5080914;28;20050;-90
2023/03/09 05:59:06;;;;;;;0.40;0.40;;;0.40;99.90;;;;;;5063106;28;20055;-91
2023/03/09 06:01:32;;;;;;;1.65;0.57;;;0.90;99.90;;;;;;5097628;28;20050;-91
2023/03/09 06:03:58;;;;;;;2.27;0.80;;;0.80;99.90;;;;;;5081331;28;20032;-91
2023/03/09 06:06:23;;;;;;;1.80;0.30;;;0.50;99.90;;;;;;5081994;28;20043;-91
2023/03/09 06:08:56;;;;;;;1.53;0.80;;;0.50;99.90;;;;;;5081857;28;20479;-90
2023/03/09 06:11:27;;;;;;;1.33;1.17;;;0.50;99.90;;;;;;5081354;28;20083;-90
2023/03/09 06:13:54;;;;;;;2.35;0.22;;;0.50;99.90;;;;;;5063465;28;20092;-91
2023/03/09 06:16:22;;;;;;;;;;;1.20;99.90;;;;;;5079219;28;20047;-91
2023/03/09 06:18:48;;;;;;;1.52;0.60;;;0.50;99.90;;;;;;5115909;28;19926;-91
2023/03/09 06:21:21;;;;;;;1.10;0.40;;;2.00;99.90;;;;;;5080705;28;20486;-90
2023/03/09 06:23:51;;;;;;;0.28;0.28;;;2.00;99.90;;;;;;5080017;28;20080;-91
2023/03/09 06:26:17;;;;;;;2.78;0.63;;;0.50;99.90;;;;;;5096383;28;20556;-91
2023/03/09 06:28:45;;;;;;;1.20;0.83;;;0.50;99.90;;;;;;5078636;28;20140;-91
2023/03/09 06:31:16;;;;;;;1.13;0.40;;;1.10;99.90;;;;;;5080898;28;20112;-90
2023/03/09 06:33:46;;;;;;;0.52;0.43;;;2.00;99.90;;;;;;5097476;28;20103;-91
2023/03/09 06:36:14;;;;;;;1.25;0.52;;;0.70;99.90;;;;;;5080894;28;20108;-91
2023/03/09 06:38:41;;;;;;;0.28;0.22;;;0.70;99.90;;;;;;5097981;28;20112;-91
2023/03/09 06:41:14;;;;;;;1.00;0.63;;;0.60;99.90;;;;;;5114870;28;20051;-90
2023/03/09 06:43:40;;;;;;;3.22;1.38;;;2.00;99.90;;;;;;5080157;28;20070;-90
2023/03/09 06:46:18;;;;;;;2.05;0.60;;;2.10;99.90;;;;;;5097863;28;20044;-90
2023/03/09 06:48:44;;;;;;;;;;;0.60;99.90;;;;;;5079651;28;20134;-89
2023/03/09 06:51:09;;;;;;;0.65;0.43;;;0.60;99.90;;;;;;5112838;28;20018;-89
2023/03/09 06:53:35;;;;;;;1.70;0.50;;;0.70;99.90;;;;;;5081537;28;20043;-89
2023/03/09 06:56:01;;;;;;;0.40;0.40;;;-0.30;99.90;;;;;;5097033;28;20139;-89
2023/03/09 06:58:32;;;;;;;3.53;0.98;;;0.60;99.90;;;;;;5080168;28;20048;-92
2023/03/09 07:01:10;;;;;;;0.40;0.10;;;0.70;99.90;;;;;;5097056;28;20058;-89
2023/03/09 07:03:43;;;;;;;2.17;0.90;;;0.90;99.90;;;;;;5081169;28;20082;-90
2023/03/09 07:06:11;;;;;;;3.25;1.02;;;1.50;99.90;;;;;;5099926;28;20039;-89
2023/03/09 07:08:37;;;;;;;1.20;0.68;;;0.40;99.90;;;;;;5077832;28;20042;-90
2023/03/09 07:11:03;;;;;;;2.33;1.43;;;2.10;99.90;;;;;;5079549;28;20043;-89
2023/03/09 07:13:30;;;;;;;2.35;0.47;;;0.90;99.90;;;;;;5096095;28;20488;-91
2023/03/09 07:16:00;;;;;;;2.60;1.13;;;0.90;99.90;;;;;;5097089;28;20543;-94
2023/03/09 07:18:32;;;;;;;1.92;1.42;;;0.90;99.90;;;;;;5078365;28;20051;-90
2023/03/09 07:21:01;;;;;;;1.23;0.50;;;1.00;99.90;;;;;;5081428;28;20055;-89
2023/03/09 07:23:33;;;;;;;0.47;0.32;;;0.10;99.90;;;;;;5081042;28;20044;-89
2023/03/09 07:26:03;;;;;;;0.20;0.20;;;2.30;99.90;;;;;;5080423;28;20138;-90
2023/03/09 07:28:42;;;;;;;;;;;;;;;;;;;;;
2023/03/09 07:31:13;;;;;;;1.42;0.75;;;2.30;99.90;;;;;;5099803;28;20059;-90
2023/03/09 07:33:39;;;;;;;3.08;1.27;;;0.90;99.90;;;;;;5118828;28;20043;-88
2023/03/09 07:36:06;;;;;;;1.98;0.77;;;2.30;99.90;;;;;;5084770;28;20393;-90
2023/03/09 07:38:32;;;;;;;2.95;0.80;;;1.00;99.90;;;;;;5081717;28;20054;-91
2023/03/09 07:41:00;;;;;;;1.00;0.80;;;1.10;99.90;;;;;;5101141;28;20044;-91
2023/03/09 07:43:26;;;;;;;2.47;1.30;;;1.80;99.90;;;;;;5082524;28;20083;-90
2023/03/09 07:45:54;;;;;;;1.55;0.40;;;0.30;99.90;;;;;;5081974;28;20134;-89
2023/03/09 07:48:20;;;;;;;3.78;1.42;;;1.00;99.90;;;;;;5082650;28;20130;-89
2023/03/09 07:50:46;;;;;;;4.23;0.63;;;1.20;99.90;;;;;;5100355;28;20132;-89
2023/03/09 07:53:12;;;;;;;0.93;0.50;;;1.90;99.90;;;;;;5081847;28;20039;-89
2023/03/09 07:55:38;;;;;;;1.20;0.67;;;1.20;99.90;;;;;;5099260;28;20393;-91
2023/03/09 07:58:04;;;;;;;0.73;0.70;;;1.40;99.90;;;;;;5098045;28;20481;-86
2023/03/09 08:00:53;;;;;;;2.78;1.02;;;1.40;99.90;;;;;;5083734;28;20063;-96
2023/03/09 08:03:35;;;;;;;;;;;;;;;;;;;;;
2023/03/09 08:06:35;;;;;;;0.40;0.22;;;1.20;99.90;;;;;;5099487;28;20043;-96
2023/03/09 08:09:24;;;;;;;0.70;0.38;;;1.50;99.90;;;;;;5077204;28;20086;-96
2023/03/09 08:15:02;;;;;;;1.45;0.70;;;1.60;99.90;;;;;;5078949;28;20055;-93
2023/03/09 08:20:32;;;;;;;1.25;0.88;;;1.60;99.90;;;;;;5093316;28;20191;-95
2023/03/09 08:23:03;;;;;;;1.15;0.60;;;1.40;99.90;;;;;;5081989;28;20045;-88
2023/03/09 08:25:50;;;;;;;;;;;;;;;;;;;;;
2023/03/09 08:28:17;;;;;;;1.42;1.17;;;1.60;99.90;;;;;;5100914;28;20116;-93
2023/03/09 08:36:46;;;;;;;2.20;0.57;;;2.50;99.90;;;;;;5099315;28;20055;-86
2023/03/09 08:39:51;;;;;;;0.23;0.17;;;1.70;99.90;;;;;;5080823;28;20096;-93
2023/03/09 08:42:23;;;;;;;1.65;1.02;;;1.70;99.90;;;;;;5081159;28;20046;-90
2023/03/09 08:44:52;;;;;;;1.42;0.60;;;1.70;99.90;;;;;;5081305;28;20101;-91
2023/03/09 08:47:31;;;;;;;1.70;0.77;;;1.60;99.90;;;;;;5082753;28;20086;-89
2023/03/09 08:50:03;;;;;;;0.90;0.47;;;1.20;99.90;;;;;;5081016;28;20058;-90
2023/03/09 08:52:36;;;;;;;2.17;0.52;;;2.40;99.90;;;;;;5080866;28;20040;-88
2023/03/09 08:55:08;;;;;;;2.25;0.77;;;1.80;99.90;;;;;;5080821;28;20044;-89
2023/03/09 08:57:35;;;;;;;1.33;0.70;;;1.60;99.90;;;;;;5083163;28;20043;-88
2023/03/09 09:00:03;;;;;;;1.30;1.17;;;1.80;99.90;;;;;;5081340;28;20088;-90
2023/03/09 09:02:48;;;;;;;2.72;0.80;;;1.90;99.90;;;;;;5097974;28;20103;-92
2023/03/09 09:05:17;;;;;;;3.35;0.57;;;1.90;99.90;;;;;;5099938;28;20048;-87
2023/03/09 09:07:55;;;;;;;;;;;;;;;;;;;;;
2023/03/09 09:10:22;;;;;;;0.73;0.35;;;1.00;99.90;;;;;;5096065;28;20039;-89
2023/03/09 09:13:38;;;;;;;1.17;0.52;;;1.90;99.90;;;;;;5079676;28;20090;-91
2023/03/09 09:16:22;;;;;;;2.75;0.43;;;1.90;99.90;;;;;;5079676;28;20120;-90
2023/03/09 09:18:50;;;;;;;0.40;0.20;;;1.90;99.90;;;;;;5081140;28;20054;-90
2023/03/09 09:21:17;;;;;;;1.13;0.85;;;2.00;99.90;;;;;;5080330;28;20080;-82
2023/03/09 09:23:46;;;;;;;0.28;0.28;;;1.90;99.90;;;;;;5096169;28;20058;-87
2023/03/09 09:26:13;;;;;;;2.55;1.15;;;1.90;99.90;;;;;;5078553;28;20047;-86
2023/03/09 09:28:42;;;;;;;0.77;0.43;;;1.90;99.90;;;;;;5079076;28;20078;-86
2023/03/09 09:31:12;;;;;;;1.38;0.80;;;1.90;99.90;;;;;;5095525;28;20070;-89
2023/03/09 09:33:44;;;;;;;2.17;0.68;;;2.00;99.90;;;;;;5079294;28;20379;-89
2023/03/09 09:36:35;;;;;;;0.40;0.32;;;2.00;99.90;;;;;;5095793;28;20119;-92
2023/03/09 09:39:02;;;;;;;1.77;0.60;;;1.90;99.90;;;;;;5062650;28;20051;-89
2023/03/09 09:41:57;;;;;;;0.40;0.40;;;1.90;99.90;;;;;;5098795;28;20043;-91
2023/03/09 09:44:30;;;;;;;1.63;1.10;;;2.00;99.90;;;;;;5080098;28;20410;-87
2023/03/09 09:47:00;;;;;;;1.95;0.90;;;2.00;99.90;;;;;;5080954;28;20142;-87
2023/03/09 09:49:33;;;;;;;2.15;0.82;;;3.20;99.90;;;;;;5080569;28;20050;-82
2023/03/09 09:52:20;;;;;;;0.82;0.73;;;2.10;99.90;;;;;;5080645;28;20054;-95
2023/03/09 09:55:00;;;;;;;1.70;0.88;;;2.10;99.90;;;;;;5079302;28;20047;-89
2023/03/09 10:01:39;;;;;;;1.83;0.50;;;2.30;99.90;;;;;;5091531;28;20441;-89
2023/03/09 10:22:16;;;;;;;2.55;0.75;;;2.80;99.90;;;;;;5062948;28;20047;-89
2023/03/09 10:24:58;;;;;;;1.10;0.95;;;2.80;99.90;;;;;;5054521;28;20048;-88
2023/03/09 10:27:37;;;;;;;0.95;0.88;;;2.90;99.90;;;;;;5037854;28;20051;-88
2023/03/09 10:30:40;;;;;;;3.08;0.70;;;2.90;99.90;;;;;;5055006;28;20064;-88
2023/03/09 10:33:12;;;;;;;2.50;0.47;;;2.90;99.90;;;;;;5036928;28;20059;-88
2023/03/09 10:35:45;;;;;;;1.50;1.05;;;2.90;99.90;;;;;;5037292;28;20044;-88
2023/03/09 10:38:23;;;;;;;0.68;0.63;;;3.00;99.90;;;;;;5048430;28;20081;-89
2023/03/09 10:44:33;;;;;;;;;;;3.00;99.90;;;;;;5113469;28;20381;-88
2023/03/09 10:47:10;;;;;;;0.40;0.40;;;3.00;99.90;;;;;;5095408;28;19923;-88
2023/03/09 10:49:39;;;;;;;1.65;0.60;;;3.70;99.90;;;;;;5111026;28;20043;-89
2023/03/09 10:52:16;;;;;;;1.65;1.48;;;2.70;99.90;;;;;;5092832;28;20087;-91
2023/03/09 10:54:57;;;;;;;1.27;0.82;;;3.00;99.90;;;;;;5079367;28;20048;-87
2023/03/09 10:57:25;;;;;;;1.90;1.00;;;3.10;99.90;;;;;;5110481;28;20043;-86
2023/03/09 11:00:11;;;;;;;0.95;0.50;;;3.10;99.90;;;;;;5094255;28;20130;-89
2023/03/09 11:02:55;;;;;;;1.98;0.40;;;3.00;99.90;;;;;;5095302;28;20056;-89
2023/03/09 11:05:24;;;;;;;0.80;0.52;;;3.20;99.90;;;;;;5115678;28;20247;-88
2023/03/09 11:08:02;;;;;;;0.75;0.52;;;3.00;99.90;;;;;;5098668;28;20039;-89
2023/03/09 11:10:35;;;;;;;2.50;1.08;;;3.00;99.90;;;;;;5080907;28;20050;-88
2023/03/09 11:13:02;;;;;;;1.73;0.95;;;2.20;99.90;;;;;;5115727;28;20052;-88
2023/03/09 11:15:46;;;;;;;1.58;0.93;;;3.10;99.90;;;;;;5082017;28;20059;-89
2023/03/09 11:18:48;;;;;;;2.83;0.85;;;3.10;99.90;;;;;;5099163;28;20048;-90
2023/03/09 11:24:59;;;;;;;;;;;3.20;99.90;;;;;;5117146;28;20031;-90
2023/03/09 11:27:46;;;;;;;1.75;1.55;;;3.00;99.90;;;;;;5098342;28;20002;-89
2023/03/09 11:30:16;;;;;;;0.32;0.32;;;3.20;99.90;;;;;;5097792;28;20048;-85
2023/03/09 11:32:43;;;;;;;4.68;1.30;;;3.30;99.90;;;;;;5081137;28;20047;-89
2023/03/09 11:35:18;;;;;;;2.35;0.40;;;3.40;99.90;;;;;;5080810;28;20100;-88
2023/03/09 11:37:56;;;;;;;2.67;0.55;;;2.60;99.90;;;;;;5080522;28;20493;-89
2023/03/09 11:40:27;;;;;;;3.03;1.00;;;3.50;99.90;;;;;;5081324;28;20509;-92
2023/03/09 11:42:59;;;;;;;4.95;0.68;;;2.60;99.90;;;;;;5081513;28;20547;-90
2023/03/09 11:45:32;;;;;;;0.35;0.35;;;3.40;99.90;;;;;;5081126;28;20086;-90
2023/03/09 11:48:06;;;;;;;0.68;0.68;;;3.40;99.90;;;;;;5081498;28;20079;-88
2023/03/09 11:54:52;;;;;;;1.08;0.93;;;3.60;99.90;;;;;;5095879;28;20046;-91
2023/03/09 11:57:23;;;;;;;2.13;0.80;;;3.30;99.90;;;;;;5081716;28;20059;-90
2023/03/09 12:00:03;;;;;;;1.20;0.73;;;3.40;99.90;;;;;;5081982;28;20067;-91
2023/03/09 12:07:08;;;;;;;1.55;1.05;;;3.30;99.90;;;;;;5052698;28;20090;-90
2023/03/09 12:10:21;;;;;;;1.73;1.30;;;3.40;99.90;;;;;;5019987;28;20553;-90
2023/03/09 12:24:42;;;;;;;5.32;1.10;;;3.40;99.90;;;;;;5053107;28;20044;-89
2023/03/09 12:39:14;;;;;;;1.73;0.70;;;3.50;99.90;;;;;;5073006;28;20067;-91
2023/03/09 12:42:10;;;;;;;;;;;;;;;;;;;;;
2023/03/09 12:45:12;;;;;;;2.13;0.80;;;3.50;99.90;;;;;;5053198;28;20040;-90
2023/03/09 12:58:43;;;;;;;2.63;0.60;;;3.50;99.90;;;;;;5021200;28;20049;-90
2023/03/09 13:01:22;;;;;;;1.75;0.52;;;3.50;99.90;;;;;;5039149;28;20041;-90
2023/03/09 13:04:28;;;;;;;1.38;0.22;;;3.60;99.90;;;;;;5039321;28;20172;-90
2023/03/09 13:07:28;;;;;;;2.88;0.65;;;3.00;99.90;;;;;;4993566;28;20101;-90
2023/03/09 13:13:41;;;;;;;0.20;0.20;;;3.50;99.90;;;;;;4992918;28;20037;-89
2023/03/09 13:19:53;;;;;;;0.55;0.50;;;3.50;99.90;;;;;;5071507;28;20170;-90
2023/03/09 13:22:21;;;;;;;2.45;0.88;;;3.60;99.90;;;;;;5071344;28;20427;-90
2023/03/09 13:24:50;;;;;;;2.08;1.00;;;3.60;99.90;;;;;;5100118;27;20056;-90
2023/03/09 13:27:40;;;;;;;1.00;0.60;;;3.70;99.90;;;;;;5078522;28;20087;-89
2023/03/09 13:30:14;;;;;;;0.85;0.57;;;3.70;99.90;;;;;;5061877;28;20064;-89
2023/03/09 13:32:52;;;;;;;2.03;1.33;;;3.60;99.90;;;;;;5095972;28;20039;-89
2023/03/09 13:35:51;;;;;;;2.38;0.73;;;3.60;99.90;;;;;;5130270;27;20051;-92
2023/03/09 13:38:30;;;;;;;3.63;1.77;;;3.60;99.90;;;;;;5096415;28;20047;-89
2023/03/09 13:41:13;;;;;;;;;;;;;;;;;;;;;
2023/03/09 13:43:49;;;;;;;0.88;0.82;;;3.60;99.90;;;;;;5096186;28;20398;-89
2023/03/09 13:46:35;;;;;;;0.98;0.50;;;3.50;99.90;;;;;;5096224;28;20393;-89
2023/03/09 13:49:22;;;;;;;4.25;0.68;;;3.60;99.90;;;;;;5096115;28;20108;-89
2023/03/09 13:52:03;;;;;;;1.50;0.77;;;3.50;99.90;;;;;;5079046;28;20054;-89
2023/03/09 13:54:34;;;;;;;0.60;0.55;;;3.50;99.90;;;;;;5079181;28;20052;-89
2023/03/09 13:57:21;;;;;;;1.45;0.43;;;3.60;99.90;;;;;;5130935;27;20134;-89
2023/03/09 13:59:55;;;;;;;0.47;0.40;;;2.40;99.90;;;;;;5096262;28;20051;-89
2023/03/09 14:02:29;;;;;;;1.55;0.63;;;3.40;99.90;;;;;;5095337;28;20138;-95
2023/03/09 14:04:58;;;;;;;2.22;0.77;;;3.30;99.90;;;;;;5096993;28;20100;-89
2023/03/09 14:07:33;;;;;;;2.70;0.70;;;3.40;99.90;;;;;;5097188;28;20043;-89
2023/03/09 14:10:07;;;;;;;1.63;0.70;;;4.50;99.90;;;;;;5079612;28;20447;-89
2023/03/09 14:12:38;;;;;;;3.00;1.17;;;3.50;99.90;;;;;;5129627;27;20447;-89
2023/03/09 14:15:17;;;;;;;1.52;1.02;;;3.40;99.90;;;;;;5096419;28;20085;-89
2023/03/09 14:17:43;;;;;;;5.00;1.15;;;3.30;99.90;;;;;;5130023;27;20078;-89
2023/03/09 14:20:21;;;;;;;4.00;1.25;;;4.00;99.90;;;;;;5129441;27;20047;-89
2023/03/09 14:22:55;;;;;;;3.25;0.75;;;3.10;99.90;;;;;;5095344;28;20043;-89
2023/03/09 14:25:24;;;;;;;1.27;0.30;;;3.20;99.90;;;;;;5095149;28;20051;-89
2023/03/09 14:27:51;;;;;;;1.10;0.80;;;3.10;99.90;;;;;;5094769;28;20036;-89
2023/03/09 14:30:30;;;;;;;0.45;0.45;;;3.20;99.90;;;;;;5078116;28;20067;-89
2023/03/09 14:32:57;;;;;;;1.50;0.75;;;3.10;99.90;;;;;;5112866;28;20166;-89
2023/03/09 14:35:35;;;;;;;1.15;0.73;;;3.10;99.90;;;;;;5112427;28;20101;-94
2023/03/09 14:38:01;;;;;;;1.20;0.40;;;3.20;99.90;;;;;;5097532;28;20105;-85
2023/03/09 14:40:35;;;;;;;1.13;1.02;;;3.10;99.90;;;;;;5116460;28;20043;-89
2023/03/09 14:43:27;;;;;;;2.50;0.93;;;3.00;99.90;;;;;;5116102;28;20066;-85
2023/03/09 14:46:12;;;;;;;1.98;0.85;;;3.00;99.90;;;;;;5098570;28;20079;-87
2023/03/09 14:48:39;;;;;;;3.15;1.10;;;2.80;99.90;;;;;;5112931;28;20039;-85
2023/03/09 14:51:12;;;;;;;3.08;0.38;;;2.60;99.90;;;;;;5096834;28;20147;-87
2023/03/09 14:53:54;;;;;;;0.95;0.75;;;2.90;99.90;;;;;;5097378;28;20561;-89
2023/03/09 14:56:21;;;;;;;1.75;0.95;;;2.80;99.90;;;;;;5132430;27;20389;-86
2023/03/09 14:58:46;;;;;;;2.50;1.40;;;2.80;99.90;;;;;;5097382;28;20108;-86
2023/03/09 15:01:15;;;;;;;0.77;0.60;;;2.70;99.90;;;;;;5114727;28;20036;-85
2023/03/09 15:03:41;;;;;;;0.90;0.82;;;2.70;99.90;;;;;;5097793;28;20500;-88